Time;durP1;ratioP1;P1;durP2;ratioP2;P2;SDS_P1;SDS_P2;PMS_P1;PMS_P2;Temp;Humidity;BMP_temperature;BMP_pressure;BME280_temperature;BME280_humidity;BME280_pressure;Samples;Min_cycle;Max_cycle;Signal;HPM_P1;HPM_P2
2021/05/08 00:00:55;;;;;;;10.73;2.88;;;3.50;99.90;;;;;;6214753;23;20051;-87
2021/05/08 00:03:20;;;;;;;7.80;2.97;;;3.50;99.90;;;;;;6213389;23;20016;-87
2021/05/08 00:05:47;;;;;;;10.40;3.05;;;3.50;99.90;;;;;;6190230;23;20087;-88
2021/05/08 00:08:15;;;;;;;11.10;2.50;;;3.50;99.90;;;;;;6190400;23;20062;-86
2021/05/08 00:10:42;;;;;;;9.63;3.42;;;3.50;99.90;;;;;;6242058;23;20016;-87
2021/05/08 00:13:08;;;;;;;8.15;2.88;;;3.60;99.90;;;;;;6213903;23;20024;-87
2021/05/08 00:15:34;;;;;;;13.18;3.47;;;3.50;99.90;;;;;;6215365;23;20019;-85
2021/05/08 00:18:00;;;;;;;9.40;3.45;;;3.50;99.90;;;;;;6215385;23;20375;-85
2021/05/08 00:20:30;;;;;;;10.40;3.20;;;3.50;99.90;;;;;;6190892;23;20204;-85
2021/05/08 00:22:57;;;;;;;16.65;3.38;;;3.50;99.90;;;;;;6214707;23;20405;-85
2021/05/08 00:25:23;;;;;;;10.25;3.58;;;3.50;99.90;;;;;;6240780;23;20020;-85
2021/05/08 00:27:49;;;;;;;8.98;3.35;;;3.50;99.90;;;;;;6190000;23;20020;-85
2021/05/08 00:30:15;;;;;;;8.10;3.53;;;3.50;99.90;;;;;;6189229;23;20020;-86
2021/05/08 00:32:42;;;;;;;6.70;3.38;;;3.50;99.90;;;;;;6241796;23;20024;-86
2021/05/08 00:35:08;;;;;;;12.70;4.68;;;3.50;99.90;;;;;;6241088;23;20020;-85
2021/05/08 00:37:34;;;;;;;15.25;3.58;;;3.50;99.90;;;;;;6214710;23;20016;-85
2021/05/08 00:40:00;;;;;;;8.63;3.40;;;3.40;99.90;;;;;;6214830;23;20552;-86
2021/05/08 00:42:26;;;;;;;11.65;3.72;;;3.50;99.90;;;;;;6240758;23;20023;-86
2021/05/08 00:44:52;;;;;;;21.05;3.70;;;3.40;99.90;;;;;;6215921;22;20098;-86
2021/05/08 00:47:19;;;;;;;14.35;4.45;;;3.70;99.90;;;;;;6244244;22;20429;-86
2021/05/08 00:49:46;;;;;;;9.38;3.72;;;3.40;99.90;;;;;;6244666;22;20019;-85
2021/05/08 00:52:13;;;;;;;15.65;3.83;;;3.50;99.90;;;;;;6219411;22;20026;-85
2021/05/08 00:54:41;;;;;;;14.30;4.70;;;3.40;99.90;;;;;;6271866;22;20019;-86
2021/05/08 00:57:07;;;;;;;12.27;4.20;;;3.40;99.90;;;;;;6245100;22;20053;-86
2021/05/08 00:59:33;;;;;;;12.27;4.20;;;3.40;99.90;;;;;;6218761;22;20346;-87
2021/05/08 01:02:00;;;;;;;17.98;5.35;;;3.40;99.90;;;;;;6219568;22;20023;-88
2021/05/08 01:04:31;;;;;;;10.88;4.20;;;3.40;99.90;;;;;;6244922;22;20221;-88
2021/05/08 01:06:59;;;;;;;14.15;4.78;;;3.50;99.90;;;;;;6245433;22;20094;-88
2021/05/08 01:09:28;;;;;;;19.48;4.07;;;3.70;99.90;;;;;;6282396;22;20112;-86
2021/05/08 01:11:55;;;;;;;14.25;4.90;;;3.50;99.90;;;;;;6245072;22;20026;-86
2021/05/08 01:14:22;;;;;;;15.20;3.90;;;3.50;99.90;;;;;;6244107;22;20039;-87
2021/05/08 01:16:48;;;;;;;10.25;3.83;;;3.50;99.90;;;;;;6245042;22;20791;-86
2021/05/08 01:19:16;;;;;;;11.10;3.83;;;3.50;99.90;;;;;;6218969;22;20099;-87
2021/05/08 01:21:45;;;;;;;12.70;4.50;;;3.40;99.90;;;;;;6271485;22;20031;-86
2021/05/08 01:24:12;;;;;;;8.65;4.10;;;3.40;99.90;;;;;;6219620;22;20012;-86
2021/05/08 01:26:39;;;;;;;15.02;4.32;;;3.40;99.90;;;;;;6244576;22;20047;-86
2021/05/08 01:29:05;;;;;;;13.68;3.90;;;3.40;99.90;;;;;;6219434;22;20319;-86
2021/05/08 01:31:32;;;;;;;9.32;3.80;;;3.40;99.90;;;;;;6244018;22;20252;-87
2021/05/08 01:34:00;;;;;;;16.30;4.75;;;3.40;99.90;;;;;;6245092;22;20449;-86
2021/05/08 01:36:26;;;;;;;12.40;4.53;;;3.30;99.90;;;;;;6243637;22;20023;-86
2021/05/08 01:38:53;;;;;;;13.77;4.00;;;3.20;99.90;;;;;;6272140;22;20031;-86
2021/05/08 01:41:19;;;;;;;7.85;3.60;;;3.20;99.90;;;;;;6270731;22;20023;-87
2021/05/08 01:43:45;;;;;;;7.28;3.78;;;3.20;99.90;;;;;;6270172;22;20142;-87
2021/05/08 01:46:11;;;;;;;15.77;4.53;;;3.20;99.90;;;;;;6219012;22;20043;-86
2021/05/08 01:48:38;;;;;;;9.55;4.57;;;3.20;99.90;;;;;;6244263;22;20454;-86
2021/05/08 01:51:04;;;;;;;18.17;4.78;;;3.10;99.90;;;;;;6271318;22;20024;-86
2021/05/08 01:53:30;;;;;;;11.82;4.35;;;3.00;99.90;;;;;;6271301;22;20023;-86
2021/05/08 01:55:56;;;;;;;16.25;5.65;;;2.90;99.90;;;;;;6245073;22;20338;-86
2021/05/08 01:58:22;;;;;;;19.27;4.85;;;2.80;99.90;;;;;;6244090;22;20091;-86
2021/05/08 02:00:49;;;;;;;14.27;4.25;;;2.80;99.90;;;;;;6244453;22;20078;-87
2021/05/08 02:03:15;;;;;;;14.63;5.25;;;2.70;99.90;;;;;;6244383;22;20449;-87
2021/05/08 02:05:43;;;;;;;9.73;4.35;;;2.70;99.90;;;;;;6244340;22;20074;-87
2021/05/08 02:08:10;;;;;;;11.15;4.68;;;2.60;99.90;;;;;;6245010;22;20091;-86
2021/05/08 02:10:37;;;;;;;9.45;4.10;;;2.60;99.90;;;;;;6270634;22;20015;-86
2021/05/08 02:13:06;;;;;;;11.27;4.47;;;2.60;99.90;;;;;;6246702;22;20019;-86
2021/05/08 02:15:32;;;;;;;8.45;5.00;;;2.60;99.90;;;;;;6245590;22;20016;-87
2021/05/08 02:17:58;;;;;;;15.68;4.32;;;2.50;99.90;;;;;;6246815;22;20023;-86
2021/05/08 02:20:29;;;;;;;8.95;5.13;;;2.50;99.90;;;;;;6271333;22;20154;-86
2021/05/08 02:22:58;;;;;;;9.40;4.22;;;2.50;99.90;;;;;;6284347;22;20064;-86
2021/05/08 02:25:25;;;;;;;5.68;4.00;;;2.40;99.90;;;;;;6245555;22;20026;-87
2021/05/08 02:27:51;;;;;;;13.07;4.35;;;2.40;99.90;;;;;;6246737;22;20019;-86
2021/05/08 02:30:23;;;;;;;15.75;5.45;;;2.30;99.90;;;;;;6273555;22;20024;-87
2021/05/08 02:32:48;;;;;;;9.55;4.10;;;2.30;99.90;;;;;;6273233;22;20499;-86
2021/05/08 02:35:15;;;;;;;8.27;3.83;;;2.20;99.90;;;;;;6196724;22;20015;-86
2021/05/08 02:37:43;;;;;;;12.23;4.53;;;2.10;99.90;;;;;;6246010;22;20020;-86
2021/05/08 02:40:13;;;;;;;9.75;4.20;;;2.10;99.90;;;;;;6246663;22;20047;-86
2021/05/08 02:42:39;;;;;;;6.55;3.47;;;2.10;99.90;;;;;;6272802;22;20563;-87
2021/05/08 02:45:06;;;;;;;12.88;3.42;;;2.10;99.90;;;;;;6245923;22;20012;-86
2021/05/08 02:47:33;;;;;;;6.00;3.40;;;1.90;99.90;;;;;;6220690;22;20081;-86
2021/05/08 02:49:58;;;;;;;10.30;5.20;;;1.90;99.90;;;;;;6246694;22;20026;-87
2021/05/08 02:52:24;;;;;;;7.93;3.95;;;1.80;99.90;;;;;;6220305;22;20023;-87
2021/05/08 02:54:50;;;;;;;12.70;3.80;;;1.80;99.90;;;;;;6221033;22;20043;-86
2021/05/08 02:57:16;;;;;;;9.70;4.50;;;1.70;99.90;;;;;;6246441;22;20046;-86
2021/05/08 02:59:42;;;;;;;13.55;3.65;;;1.70;99.90;;;;;;6272470;22;20019;-86
2021/05/08 03:02:09;;;;;;;7.10;3.22;;;1.70;99.90;;;;;;6246158;22;20363;-87
2021/05/08 03:04:35;;;;;;;9.40;4.18;;;1.70;99.90;;;;;;6245509;22;20020;-86
2021/05/08 03:07:02;;;;;;;6.93;3.40;;;1.60;99.90;;;;;;6273125;22;20016;-86
2021/05/08 03:09:28;;;;;;;7.97;4.50;;;1.60;99.90;;;;;;6244965;22;20330;-86
2021/05/08 03:11:55;;;;;;;6.50;4.45;;;1.50;99.90;;;;;;6273397;22;20043;-89
2021/05/08 03:14:21;;;;;;;13.15;4.55;;;1.50;99.90;;;;;;6272662;22;20016;-86
2021/05/08 03:16:47;;;;;;;8.45;4.00;;;1.60;99.90;;;;;;6245646;22;20457;-86
2021/05/08 03:19:13;;;;;;;12.15;3.78;;;1.70;99.90;;;;;;6221394;22;20020;-86
2021/05/08 03:21:41;;;;;;;11.20;3.78;;;1.60;99.90;;;;;;6272294;22;20015;-86
2021/05/08 03:24:07;;;;;;;7.00;3.53;;;1.50;99.90;;;;;;6245950;22;20502;-87
2021/05/08 03:26:34;;;;;;;8.43;3.00;;;1.50;99.90;;;;;;6245191;22;20380;-86
2021/05/08 03:29:00;;;;;;;15.02;5.43;;;1.50;99.90;;;;;;6272969;22;20062;-88
2021/05/08 03:31:26;;;;;;;9.15;4.40;;;1.60;99.90;;;;;;6219908;22;20020;-87
2021/05/08 03:33:52;;;;;;;8.98;3.90;;;1.50;99.90;;;;;;6246219;22;20023;-87
2021/05/08 03:36:18;;;;;;;8.73;3.35;;;1.50;99.90;;;;;;6246023;22;20020;-87
2021/05/08 03:38:44;;;;;;;7.43;4.50;;;1.50;99.90;;;;;;6245242;22;20039;-87
2021/05/08 03:41:10;;;;;;;13.60;5.50;;;1.60;99.90;;;;;;6271317;22;20341;-87
2021/05/08 03:43:39;;;;;;;5.78;4.32;;;1.50;99.90;;;;;;6220564;22;20337;-87
2021/05/08 03:46:05;;;;;;;17.08;5.80;;;1.60;99.90;;;;;;6244222;22;20016;-87
2021/05/08 03:48:30;;;;;;;13.02;5.40;;;1.50;99.90;;;;;;6189002;23;20044;-88
2021/05/08 03:50:58;;;;;;;14.95;5.38;;;1.60;99.90;;;;;;6242121;23;20051;-87
2021/05/08 03:53:24;;;;;;;14.10;6.20;;;1.60;99.90;;;;;;6215257;23;20074;-87
2021/05/08 03:55:51;;;;;;;22.73;6.10;;;1.50;99.90;;;;;;6215198;23;20450;-87
2021/05/08 03:58:29;;;;;;;12.93;5.03;;;1.70;99.90;;;;;;6190587;23;20500;-87
2021/05/08 04:00:55;;;;;;;12.05;5.93;;;1.70;99.90;;;;;;6202187;23;20016;-87
2021/05/08 04:03:22;;;;;;;14.23;5.85;;;1.70;99.90;;;;;;6215597;23;20020;-87
2021/05/08 04:05:53;;;;;;;11.85;5.72;;;1.60;99.90;;;;;;6226608;23;20498;-87
2021/05/08 04:08:20;;;;;;;17.83;6.00;;;1.60;99.90;;;;;;6242387;23;20047;-87
2021/05/08 04:10:49;;;;;;;16.95;6.00;;;1.60;99.90;;;;;;6214147;23;20023;-87
2021/05/08 04:13:16;;;;;;;14.93;6.47;;;1.70;99.90;;;;;;6214832;23;20023;-87
2021/05/08 04:15:42;;;;;;;20.60;6.07;;;1.60;99.90;;;;;;6214589;23;20438;-87
2021/05/08 04:18:08;;;;;;;20.20;6.35;;;1.70;99.90;;;;;;6215601;23;20450;-87
2021/05/08 04:20:34;;;;;;;9.60;5.78;;;1.70;99.90;;;;;;6214201;23;20016;-87
2021/05/08 04:23:00;;;;;;;13.65;5.22;;;1.90;99.90;;;;;;6190133;23;20380;-87
2021/05/08 04:25:27;;;;;;;12.05;5.60;;;1.80;99.90;;;;;;6241542;23;20019;-86
2021/05/08 04:27:54;;;;;;;16.50;6.00;;;1.90;99.90;;;;;;6215461;23;20019;-87
2021/05/08 04:30:23;;;;;;;16.10;6.15;;;1.80;99.90;;;;;;6242172;23;20438;-87
2021/05/08 04:32:49;;;;;;;15.82;6.32;;;1.80;99.90;;;;;;6188996;23;20020;-87
2021/05/08 04:35:16;;;;;;;13.75;5.65;;;1.90;99.90;;;;;;6241920;23;20036;-86
2021/05/08 04:37:43;;;;;;;9.80;5.00;;;1.90;99.90;;;;;;6214177;23;20107;-86
2021/05/08 04:40:10;;;;;;;7.90;4.30;;;1.90;99.90;;;;;;6215358;23;20694;-87
2021/05/08 04:42:35;;;;;;;8.88;4.55;;;1.90;99.90;;;;;;6214289;23;20083;-87
2021/05/08 04:45:02;;;;;;;5.53;3.35;;;1.90;99.90;;;;;;6222851;23;20083;-87
2021/05/08 04:47:28;;;;;;;6.07;4.20;;;1.90;99.90;;;;;;6239999;23;20044;-86
2021/05/08 04:49:58;;;;;;;13.57;5.32;;;1.90;99.90;;;;;;6239817;23;20012;-87
2021/05/08 04:52:25;;;;;;;10.50;4.45;;;2.20;99.90;;;;;;6250335;23;20020;-87
2021/05/08 04:54:56;;;;;;;12.27;5.93;;;1.90;99.90;;;;;;6250385;23;20022;-87
2021/05/08 04:57:22;;;;;;;12.60;6.60;;;2.10;99.90;;;;;;6190278;23;20410;-87
2021/05/08 04:59:48;;;;;;;16.13;6.90;;;2.10;99.90;;;;;;6213666;23;20027;-88
2021/05/08 05:02:14;;;;;;;15.35;7.15;;;2.20;99.90;;;;;;6240387;23;20076;-87
2021/05/08 05:04:39;;;;;;;7.40;5.80;;;2.20;99.90;;;;;;6213777;23;20652;-87
2021/05/08 05:07:05;;;;;;;11.77;6.68;;;2.20;99.90;;;;;;6239612;23;20107;-87
2021/05/08 05:09:36;;;;;;;11.90;7.93;;;2.30;99.90;;;;;;6238879;23;20365;-86
2021/05/08 05:12:04;;;;;;;14.45;7.25;;;2.40;99.90;;;;;;6190215;23;20024;-87
2021/05/08 05:14:30;;;;;;;17.52;8.43;;;2.50;99.90;;;;;;6214494;23;20016;-87
2021/05/08 05:16:56;;;;;;;14.07;6.68;;;2.90;99.90;;;;;;6239738;23;20026;-87
2021/05/08 05:19:22;;;;;;;16.13;7.47;;;2.60;99.90;;;;;;6241379;23;20023;-88
2021/05/08 05:21:48;;;;;;;8.50;6.00;;;2.70;99.90;;;;;;6240572;23;20020;-89
2021/05/08 05:24:14;;;;;;;9.63;6.50;;;2.70;99.90;;;;;;6239973;23;20047;-88
2021/05/08 05:26:40;;;;;;;10.18;6.53;;;2.90;99.90;;;;;;6213742;23;20012;-88
2021/05/08 05:29:11;;;;;;;10.98;5.47;;;3.10;99.90;;;;;;6239674;23;20050;-87
2021/05/08 05:31:38;;;;;;;14.95;6.32;;;3.00;99.90;;;;;;6214712;23;20099;-87
2021/05/08 05:34:04;;;;;;;11.88;7.10;;;3.10;99.90;;;;;;6240106;23;20143;-88
2021/05/08 05:36:31;;;;;;;14.93;7.95;;;3.30;99.90;;;;;;6214782;23;20088;-87
2021/05/08 05:39:00;;;;;;;10.57;6.75;;;3.50;99.90;;;;;;6240760;22;20500;-88
2021/05/08 05:41:27;;;;;;;17.20;8.20;;;3.80;99.90;;;;;;6241917;22;20040;-87
2021/05/08 05:43:54;;;;;;;18.50;8.20;;;4.00;99.90;;;;;;6239267;23;20020;-87
2021/05/08 05:46:21;;;;;;;14.20;7.68;;;4.30;99.90;;;;;;6239842;23;20040;-87
2021/05/08 05:48:47;;;;;;;20.02;9.35;;;4.40;99.90;;;;;;6240836;23;20027;-86
2021/05/08 05:51:14;;;;;;;12.23;9.48;;;4.60;99.90;;;;;;6216955;23;20027;-87
2021/05/08 05:53:40;;;;;;;18.90;9.10;;;4.80;99.90;;;;;;6240928;23;20082;-87
2021/05/08 05:56:06;;;;;;;12.00;8.73;;;5.00;99.90;;;;;;6216645;23;20016;-87
2021/05/08 05:58:37;;;;;;;16.58;8.50;;;5.40;99.90;;;;;;6251323;23;20069;-87
2021/05/08 06:01:03;;;;;;;14.32;8.95;;;5.20;99.90;;;;;;6241136;23;20040;-88
2021/05/08 06:03:29;;;;;;;14.77;8.27;;;5.30;99.90;;;;;;6216238;23;20032;-87
2021/05/08 06:05:55;;;;;;;15.30;7.55;;;5.30;99.90;;;;;;6241181;23;20083;-87
2021/05/08 06:08:21;;;;;;;11.77;8.35;;;5.50;99.90;;;;;;6191907;23;20016;-87
2021/05/08 06:10:46;;;;;;;12.85;8.15;;;5.80;99.90;;;;;;6215364;23;20084;-87
2021/05/08 06:13:13;;;;;;;16.48;7.82;;;5.70;99.90;;;;;;6216554;23;20027;-87
2021/05/08 06:15:39;;;;;;;14.20;7.82;;;5.90;99.90;;;;;;6215947;23;20043;-87
2021/05/08 06:18:06;;;;;;;15.43;7.90;;;6.00;99.90;;;;;;6191444;23;20122;-86
2021/05/08 06:20:31;;;;;;;15.48;8.50;;;6.30;99.90;;;;;;6216707;23;20020;-87
2021/05/08 06:22:57;;;;;;;15.43;7.40;;;6.30;99.90;;;;;;6241899;23;20081;-88
2021/05/08 06:25:24;;;;;;;7.75;6.60;;;6.30;99.90;;;;;;6216283;23;20331;-87
2021/05/08 06:27:50;;;;;;;10.68;7.07;;;6.40;99.90;;;;;;6215352;23;20098;-87
2021/05/08 06:30:17;;;;;;;8.38;6.22;;;6.40;99.90;;;;;;6241737;23;20024;-87
2021/05/08 06:32:43;;;;;;;15.57;6.57;;;6.40;99.90;;;;;;6240223;23;20095;-87
2021/05/08 06:35:09;;;;;;;10.77;6.57;;;6.60;99.90;;;;;;6190945;23;20042;-87
2021/05/08 06:37:35;;;;;;;7.88;6.40;;;6.70;99.90;;;;;;6242852;22;20519;-87
2021/05/08 06:40:00;;;;;;;14.40;6.75;;;6.70;99.90;;;;;;6190374;23;20019;-87
2021/05/08 06:42:27;;;;;;;11.77;6.35;;;6.70;99.90;;;;;;6216346;23;20027;-86
2021/05/08 06:44:53;;;;;;;11.18;5.30;;;6.80;99.90;;;;;;6214529;23;20024;-86
2021/05/08 06:47:18;;;;;;;12.38;6.57;;;6.80;99.90;;;;;;6241252;23;20327;-85
2021/05/08 06:49:45;;;;;;;13.63;6.22;;;6.90;99.90;;;;;;6240464;23;20024;-86
2021/05/08 06:52:11;;;;;;;11.27;5.80;;;7.00;99.90;;;;;;6215419;23;20016;-87
2021/05/08 06:54:37;;;;;;;19.25;6.03;;;7.10;99.90;;;;;;6241466;23;20458;-87
2021/05/08 06:57:04;;;;;;;12.32;6.10;;;7.20;99.90;;;;;;6214979;23;20119;-87
2021/05/08 06:59:33;;;;;;;10.48;5.82;;;7.20;99.90;;;;;;6240589;23;20035;-87
2021/05/08 07:01:59;;;;;;;10.57;5.60;;;7.30;99.90;;;;;;6214556;23;20024;-87
2021/05/08 07:04:25;;;;;;;12.05;6.15;;;7.50;99.90;;;;;;6241269;23;20020;-87
2021/05/08 07:06:51;;;;;;;10.20;5.80;;;7.50;99.90;;;;;;6214555;23;20016;-87
2021/05/08 07:09:16;;;;;;;9.43;5.60;;;7.60;99.90;;;;;;6190877;23;20465;-87
2021/05/08 07:11:42;;;;;;;9.48;5.57;;;7.80;99.90;;;;;;6240477;23;20020;-86
2021/05/08 07:14:08;;;;;;;10.13;5.28;;;7.80;99.90;;;;;;6240324;23;20485;-86
2021/05/08 07:16:34;;;;;;;10.57;6.30;;;7.80;99.90;;;;;;6240806;23;20016;-86
2021/05/08 07:19:00;;;;;;;8.55;5.85;;;8.00;99.90;;;;;;6240123;23;20024;-87
2021/05/08 07:21:25;;;;;;;15.40;6.20;;;8.10;99.90;;;;;;6240297;23;20024;-87
2021/05/08 07:23:51;;;;;;;10.38;5.50;;;8.20;99.90;;;;;;6239699;23;20016;-87
2021/05/08 07:26:18;;;;;;;9.50;5.63;;;8.20;99.90;;;;;;6189537;23;20016;-87
2021/05/08 07:28:45;;;;;;;7.85;6.22;;;8.30;99.90;;;;;;6241082;22;20016;-87
2021/05/08 07:31:11;;;;;;;10.52;6.20;;;8.40;99.90;;;;;;6242224;22;20099;-87
2021/05/08 07:33:37;;;;;;;10.98;6.63;;;8.50;99.90;;;;;;6241160;23;20062;-88
2021/05/08 07:36:03;;;;;;;11.48;6.55;;;8.60;99.90;;;;;;6239283;23;20016;-87
2021/05/08 07:38:29;;;;;;;13.02;6.60;;;8.70;99.90;;;;;;6216044;23;20020;-88
2021/05/08 07:40:55;;;;;;;11.48;7.00;;;8.80;99.90;;;;;;6239791;23;20099;-88
2021/05/08 07:43:22;;;;;;;11.80;6.95;;;9.00;99.90;;;;;;6241953;22;20031;-87
2021/05/08 07:45:49;;;;;;;11.80;7.07;;;9.10;99.90;;;;;;6213926;23;20024;-86
2021/05/08 07:48:15;;;;;;;18.63;7.60;;;9.20;99.90;;;;;;6241893;22;20020;-87
2021/05/08 07:50:41;;;;;;;9.73;6.75;;;9.30;99.90;;;;;;6242304;23;20330;-87
2021/05/08 07:53:08;;;;;;;6.88;5.47;;;9.40;99.90;;;;;;6214258;23;20020;-88
2021/05/08 07:55:34;;;;;;;17.15;6.63;;;9.40;99.90;;;;;;6240614;23;20381;-87
2021/05/08 07:58:06;;;;;;;7.47;6.28;;;9.50;99.90;;;;;;6239501;23;20046;-88
2021/05/08 08:00:33;;;;;;;12.18;6.30;;;9.60;99.90;;;;;;6240006;23;20012;-87
2021/05/08 08:03:18;;;;;;;11.45;6.45;;;9.80;99.90;;;;;;6240265;23;20337;-86
2021/05/08 08:05:44;;;;;;;9.63;6.47;;;10.00;99.90;;;;;;6240490;23;20016;-87
2021/05/08 08:08:09;;;;;;;9.25;5.70;;;10.20;99.90;;;;;;6241585;23;20394;-87
2021/05/08 08:10:35;;;;;;;13.57;5.88;;;10.30;99.90;;;;;;6214500;23;20016;-87
2021/05/08 08:13:01;;;;;;;12.43;6.43;;;10.40;99.90;;;;;;6240789;22;20016;-87
2021/05/08 08:15:28;;;;;;;13.00;5.72;;;10.50;99.90;;;;;;6241755;22;20023;-87
2021/05/08 08:17:53;;;;;;;13.27;6.00;;;10.60;99.90;;;;;;6239372;23;20023;-87
2021/05/08 08:20:19;;;;;;;11.77;5.63;;;10.80;99.90;;;;;;6215271;23;20334;-87
2021/05/08 08:22:45;;;;;;;5.93;5.13;;;11.00;99.90;;;;;;6241787;23;20020;-87
2021/05/08 08:25:13;;;;;;;8.75;5.30;;;11.10;99.90;;;;;;6240807;22;20056;-88
2021/05/08 08:27:40;;;;;;;8.15;4.70;;;11.10;99.90;;;;;;6240397;22;20067;-88
2021/05/08 08:30:08;;;;;;;5.45;4.50;;;11.20;99.90;;;;;;6214190;23;20438;-87
2021/05/08 08:32:35;;;;;;;9.88;4.78;;;11.20;99.90;;;;;;6240014;23;20022;-87
2021/05/08 08:35:01;;;;;;;8.00;4.55;;;11.30;99.90;;;;;;6240136;22;20062;-87
2021/05/08 08:37:27;;;;;;;11.57;5.10;;;11.20;99.90;;;;;;6239974;23;20012;-88
2021/05/08 08:39:52;;;;;;;9.95;5.40;;;11.30;99.90;;;;;;6240049;22;20055;-87
2021/05/08 08:42:19;;;;;;;12.25;5.25;;;11.40;99.90;;;;;;6240332;23;20069;-88
2021/05/08 08:44:45;;;;;;;8.77;4.28;;;11.60;99.90;;;;;;6189867;23;20295;-88
2021/05/08 08:47:30;;;;;;;10.63;4.68;;;11.80;99.90;;;;;;6223572;23;20012;-88
2021/05/08 08:50:05;;;;;;;5.03;4.32;;;11.90;99.90;;;;;;6249386;23;20457;-86
2021/05/08 08:52:31;;;;;;;8.02;4.85;;;11.90;99.90;;;;;;6240097;23;20020;-88
2021/05/08 08:54:58;;;;;;;9.05;4.63;;;11.90;99.90;;;;;;6238876;23;20112;-88
2021/05/08 08:57:31;;;;;;;9.52;4.57;;;11.90;99.90;;;;;;6239782;23;20027;-88
2021/05/08 08:59:59;;;;;;;7.32;4.38;;;12.00;99.90;;;;;;6247716;23;20015;-88
2021/05/08 09:02:27;;;;;;;7.75;4.78;;;12.00;99.90;;;;;;6238989;23;20023;-88
2021/05/08 09:04:57;;;;;;;5.25;4.15;;;12.10;99.90;;;;;;6239899;22;20028;-89
2021/05/08 09:07:26;;;;;;;11.68;4.38;;;12.20;99.90;;;;;;6249233;23;20334;-87
2021/05/08 09:09:52;;;;;;;9.63;4.65;;;12.40;99.90;;;;;;6240521;22;20016;-87
2021/05/08 09:12:19;;;;;;;7.63;4.30;;;12.40;99.90;;;;;;6241076;23;20020;-88
2021/05/08 09:14:49;;;;;;;6.43;4.20;;;12.70;99.90;;;;;;6215065;23;20046;-88
2021/05/08 09:17:27;;;;;;;12.02;4.28;;;12.80;99.90;;;;;;6238770;23;20073;-88
2021/05/08 09:20:01;;;;;;;10.23;4.43;;;12.80;99.90;;;;;;6239510;23;20465;-88
2021/05/08 09:22:32;;;;;;;9.52;4.45;;;12.80;99.90;;;;;;6240426;22;20351;-87
2021/05/08 09:25:01;;;;;;;9.30;4.90;;;12.90;99.90;;;;;;6238562;23;20016;-88
2021/05/08 09:27:40;;;;;;;7.00;4.05;;;13.00;99.90;;;;;;6239268;23;20394;-87
2021/05/08 09:30:21;;;;;;;10.85;4.57;;;13.00;99.90;;;;;;6236924;22;20069;-88
2021/05/08 09:33:01;;;;;;;8.38;4.25;;;13.00;99.90;;;;;;6239003;23;20409;-88
2021/05/08 09:35:34;;;;;;;7.32;4.03;;;13.20;99.90;;;;;;6249077;23;20072;-88
2021/05/08 09:38:07;;;;;;;10.90;4.35;;;13.10;99.90;;;;;;6248368;23;20047;-88
2021/05/08 09:40:34;;;;;;;8.23;4.03;;;13.10;99.90;;;;;;6240914;23;20091;-88
2021/05/08 09:43:00;;;;;;;7.85;4.78;;;13.00;99.90;;;;;;6240277;22;20082;-87
2021/05/08 09:45:27;;;;;;;6.72;4.43;;;13.00;99.90;;;;;;6240864;22;20410;-88
2021/05/08 09:47:54;;;;;;;8.75;4.93;;;13.10;99.90;;;;;;6212647;23;20024;-88
2021/05/08 09:50:23;;;;;;;7.88;4.10;;;13.20;99.90;;;;;;6240361;23;20052;-88
2021/05/08 09:52:55;;;;;;;5.47;4.38;;;13.30;99.90;;;;;;6213735;23;20016;-88
2021/05/08 09:55:25;;;;;;;7.10;4.13;;;13.40;99.90;;;;;;6250393;23;20031;-88
2021/05/08 09:58:09;;;;;;;8.77;4.95;;;13.50;99.90;;;;;;6240631;23;20051;-88
2021/05/08 10:00:35;;;;;;;13.60;6.25;;;13.60;99.90;;;;;;6198853;23;20434;-88
2021/05/08 10:03:02;;;;;;;9.52;5.00;;;13.60;99.90;;;;;;6187774;23;20039;-87
2021/05/08 10:05:29;;;;;;;9.18;4.97;;;13.80;99.90;;;;;;6213846;23;20458;-87
2021/05/08 10:07:56;;;;;;;6.25;4.03;;;13.90;99.90;;;;;;6240150;23;20020;-87
2021/05/08 10:10:21;;;;;;;10.25;4.07;;;14.00;99.50;;;;;;6188257;23;20020;-88
2021/05/08 10:12:48;;;;;;;7.05;4.20;;;14.10;98.90;;;;;;6240854;23;20070;-87
2021/05/08 10:15:14;;;;;;;7.10;3.45;;;14.10;99.20;;;;;;6213678;23;20036;-87
2021/05/08 10:17:43;;;;;;;7.63;4.07;;;14.20;98.90;;;;;;6213697;23;20057;-87
2021/05/08 10:20:11;;;;;;;8.35;4.30;;;14.30;99.90;;;;;;6212249;23;20450;-87
2021/05/08 10:22:47;;;;;;;8.13;4.25;;;14.40;99.40;;;;;;6240677;23;20027;-87
2021/05/08 10:25:14;;;;;;;10.10;4.45;;;14.40;99.90;;;;;;6239474;23;20070;-87
2021/05/08 10:27:40;;;;;;;8.98;3.75;;;14.50;98.40;;;;;;6213386;23;20158;-87
2021/05/08 10:30:10;;;;;;;11.32;4.45;;;14.50;98.20;;;;;;6239469;23;20012;-87
2021/05/08 10:32:41;;;;;;;9.15;3.80;;;14.40;93.90;;;;;;6213563;23;20024;-88
2021/05/08 10:35:08;;;;;;;6.75;3.92;;;14.40;94.30;;;;;;6241938;23;20474;-87
2021/05/08 10:37:34;;;;;;;6.03;3.90;;;14.40;95.30;;;;;;6215878;23;20026;-87
2021/05/08 10:40:14;;;;;;;10.68;4.38;;;14.40;98.40;;;;;;6215249;23;20099;-88
2021/05/08 10:42:47;;;;;;;;;;;14.50;96.00;;;;;;6226464;23;20020;-87
2021/05/08 10:45:14;;;;;;;7.95;3.83;;;14.60;95.80;;;;;;6240931;22;19969;-87
2021/05/08 10:47:59;;;;;;;8.18;4.50;;;14.70;97.20;;;;;;6215917;23;20024;-88
2021/05/08 10:50:37;;;;;;;6.57;4.53;;;14.70;95.10;;;;;;6214983;23;20027;-86
2021/05/08 10:53:12;;;;;;;9.93;4.05;;;14.60;95.80;;;;;;6214360;23;20023;-88
2021/05/08 10:55:57;;;;;;;15.75;4.95;;;14.60;95.00;;;;;;6252498;23;20027;-88
2021/05/08 10:58:23;;;;;;;9.23;4.40;;;14.60;94.80;;;;;;6224481;23;20012;-87
2021/05/08 11:00:56;;;;;;;13.88;4.78;;;14.70;95.50;;;;;;6242504;23;20024;-88
2021/05/08 11:03:33;;;;;;;9.77;4.60;;;14.70;97.10;;;;;;6190150;23;20017;-87
2021/05/08 11:06:11;;;;;;;9.73;4.63;;;14.90;96.90;;;;;;6215762;23;20023;-87
2021/05/08 11:08:37;;;;;;;8.70;4.57;;;14.90;94.10;;;;;;6242073;23;20023;-88
2021/05/08 11:11:05;;;;;;;7.43;4.82;;;14.90;97.60;;;;;;6241980;23;20020;-89
2021/05/08 11:13:40;;;;;;;10.80;5.40;;;15.10;97.00;;;;;;6214992;23;20055;-87
2021/05/08 11:16:07;;;;;;;10.98;5.50;;;15.20;96.50;;;;;;6241386;23;20288;-87
2021/05/08 11:18:34;;;;;;;10.45;5.40;;;15.20;95.30;;;;;;6242590;23;20027;-87
2021/05/08 11:21:10;;;;;;;10.30;5.68;;;15.30;95.80;;;;;;6216015;23;20023;-88
2021/05/08 11:23:44;;;;;;;10.32;5.03;;;15.40;94.40;;;;;;6252540;23;20020;-87
2021/05/08 11:26:34;;;;;;;11.18;5.75;;;15.40;95.30;;;;;;6214620;23;20012;-87
2021/05/08 11:29:06;;;;;;;12.10;6.38;;;15.30;93.40;;;;;;6225433;23;20019;-87
2021/05/08 11:31:48;;;;;;;14.60;5.93;;;15.20;94.30;;;;;;6241358;23;20016;-87
2021/05/08 11:34:15;;;;;;;9.23;6.32;;;15.20;95.40;;;;;;6251182;23;20319;-87
2021/05/08 11:36:52;;;;;;;10.55;5.90;;;15.20;94.30;;;;;;6242210;23;20027;-87
2021/05/08 11:39:35;;;;;;;13.25;6.35;;;15.30;95.30;;;;;;6251125;23;20019;-87
2021/05/08 11:42:16;;;;;;;12.18;6.80;;;15.30;94.90;;;;;;6252441;23;20016;-87
2021/05/08 11:44:56;;;;;;;12.60;6.75;;;15.30;94.60;;;;;;6241497;22;20395;-86
2021/05/08 11:47:27;;;;;;;12.27;6.78;;;15.40;95.70;;;;;;6214085;23;20016;-87
2021/05/08 11:50:08;;;;;;;17.42;6.70;;;15.40;96.40;;;;;;6215079;23;20024;-87
2021/05/08 11:52:35;;;;;;;11.93;6.95;;;15.60;97.30;;;;;;6214676;23;20020;-86
2021/05/08 11:55:02;;;;;;;14.57;7.68;;;16.00;96.20;;;;;;6241757;23;20465;-87
2021/05/08 11:57:29;;;;;;;12.43;8.05;;;16.00;93.30;;;;;;6214465;23;20100;-87
2021/05/08 11:59:55;;;;;;;10.40;7.13;;;16.10;95.10;;;;;;6241630;23;20083;-87
2021/05/08 12:02:23;;;;;;;11.20;7.00;;;16.20;94.60;;;;;;6214419;23;20044;-88
2021/05/08 12:04:54;;;;;;;14.02;7.47;;;16.00;93.60;;;;;;6215240;23;20445;-87
2021/05/08 12:07:21;;;;;;;13.80;7.80;;;15.90;94.20;;;;;;6251027;23;20090;-87
2021/05/08 12:09:47;;;;;;;14.02;7.68;;;15.70;94.60;;;;;;6215513;23;20020;-87
2021/05/08 12:12:13;;;;;;;11.88;7.55;;;15.60;96.70;;;;;;6213900;23;20030;-88
2021/05/08 12:14:43;;;;;;;12.18;7.13;;;15.70;98.10;;;;;;6241292;23;20023;-87
2021/05/08 12:17:10;;;;;;;14.52;8.02;;;15.70;94.70;;;;;;6224864;23;20024;-88
2021/05/08 12:19:42;;;;;;;13.27;7.95;;;15.80;96.40;;;;;;6214519;23;20066;-87
2021/05/08 12:22:09;;;;;;;10.30;6.88;;;15.90;95.40;;;;;;6241915;23;20111;-87
2021/05/08 12:24:35;;;;;;;11.35;6.95;;;15.70;95.40;;;;;;6241047;23;20430;-87
2021/05/08 12:27:00;;;;;;;9.32;6.72;;;15.80;96.20;;;;;;6241496;23;20382;-87
2021/05/08 12:29:26;;;;;;;9.75;6.57;;;15.90;96.30;;;;;;6188552;23;20081;-87
2021/05/08 12:31:52;;;;;;;9.95;6.75;;;16.10;97.00;;;;;;6214782;23;20792;-88
2021/05/08 12:34:20;;;;;;;9.60;6.15;;;16.30;97.20;;;;;;6189051;23;20460;-88
2021/05/08 12:37:04;;;;;;;8.73;5.65;;;16.40;94.40;;;;;;6215073;23;20027;-88
2021/05/08 12:39:30;;;;;;;4.78;4.00;;;16.40;94.80;;;;;;6240014;23;20101;-88
2021/05/08 12:42:01;;;;;;;11.05;5.30;;;16.30;93.10;;;;;;6214825;23;20027;-88
2021/05/08 12:44:37;;;;;;;11.00;4.97;;;16.20;94.00;;;;;;6222814;22;20012;-88
2021/05/08 12:47:21;;;;;;;5.25;4.63;;;16.10;95.40;;;;;;6251180;23;20016;-87
2021/05/08 12:50:11;;;;;;;7.97;5.00;;;16.10;95.70;;;;;;6224284;23;20035;-87
2021/05/08 12:52:39;;;;;;;5.57;4.22;;;15.90;99.20;;;;;;6224250;23;20050;-87